sensor_id;sensor_type;location;lat;lon;timestamp;temperature;humidity
38456;DHT22;24237;50.106;20.014;2024-02-21T00:00:52;8.50;1.00
38456;DHT22;24237;50.106;20.014;2024-02-21T00:03:18;8.60;6.70
38456;DHT22;24237;50.106;20.014;2024-02-21T00:05:45;8.70;1.00
38456;DHT22;24237;50.106;20.014;2024-02-21T00:08:10;8.70;1.00
38456;DHT22;24237;50.106;20.014;2024-02-21T00:10:36;8.80;1.00
38456;DHT22;24237;50.106;20.014;2024-02-21T00:13:02;8.50;1.00
38456;DHT22;24237;50.106;20.014;2024-02-21T00:15:27;8.50;1.00
38456;DHT22;24237;50.106;20.014;2024-02-21T00:17:53;8.40;81.60
38456;DHT22;24237;50.106;20.014;2024-02-21T00:20:19;8.40;99.90
38456;DHT22;24237;50.106;20.014;2024-02-21T00:22:45;8.40;99.90
38456;DHT22;24237;50.106;20.014;2024-02-21T00:25:11;8.40;99.90
38456;DHT22;24237;50.106;20.014;2024-02-21T00:27:37;8.40;96.70
38456;DHT22;24237;50.106;20.014;2024-02-21T00:30:03;8.50;99.90
38456;DHT22;24237;50.106;20.014;2024-02-21T00:32:29;8.40;99.90
38456;DHT22;24237;50.106;20.014;2024-02-21T00:34:55;8.60;57.60
38456;DHT22;24237;50.106;20.014;2024-02-21T00:37:20;8.60;41.70
38456;DHT22;24237;50.106;20.014;2024-02-21T00:39:46;8.70;1.00
38456;DHT22;24237;50.106;20.014;2024-02-21T00:42:11;8.90;1.00
38456;DHT22;24237;50.106;20.014;2024-02-21T00:44:37;9.00;1.00
38456;DHT22;24237;50.106;20.014;2024-02-21T00:47:03;8.90;1.00
38456;DHT22;24237;50.106;20.014;2024-02-21T00:49:28;8.70;24.80
38456;DHT22;24237;50.106;20.014;2024-02-21T00:51:54;8.50;99.90
38456;DHT22;24237;50.106;20.014;2024-02-21T00:54:19;8.60;99.90
38456;DHT22;24237;50.106;20.014;2024-02-21T00:56:45;8.50;1.00
38456;DHT22;24237;50.106;20.014;2024-02-21T00:59:11;8.60;1.00
38456;DHT22;24237;50.106;20.014;2024-02-21T01:01:36;8.40;99.90
38456;DHT22;24237;50.106;20.014;2024-02-21T01:04:02;8.60;1.00
38456;DHT22;24237;50.106;20.014;2024-02-21T01:06:27;8.70;1.00
38456;DHT22;24237;50.106;20.014;2024-02-21T01:08:53;8.40;99.90
38456;DHT22;24237;50.106;20.014;2024-02-21T01:11:19;8.30;1.00
38456;DHT22;24237;50.106;20.014;2024-02-21T01:13:44;8.50;99.90
38456;DHT22;24237;50.106;20.014;2024-02-21T01:16:10;8.60;99.90
38456;DHT22;24237;50.106;20.014;2024-02-21T01:18:38;8.40;99.90
38456;DHT22;24237;50.106;20.014;2024-02-21T01:21:05;8.50;99.90
38456;DHT22;24237;50.106;20.014;2024-02-21T01:23:33;8.60;99.90
38456;DHT22;24237;50.106;20.014;2024-02-21T01:25:59;8.40;1.00
38456;DHT22;24237;50.106;20.014;2024-02-21T01:28:25;8.50;99.90
38456;DHT22;24237;50.106;20.014;2024-02-21T01:30:51;8.30;1.00
38456;DHT22;24237;50.106;20.014;2024-02-21T01:33:17;8.40;4.10
38456;DHT22;24237;50.106;20.014;2024-02-21T01:35:43;8.40;1.00
38456;DHT22;24237;50.106;20.014;2024-02-21T01:38:08;8.40;99.90
38456;DHT22;24237;50.106;20.014;2024-02-21T01:40:34;8.20;99.90
38456;DHT22;24237;50.106;20.014;2024-02-21T01:42:59;8.30;99.90
38456;DHT22;24237;50.106;20.014;2024-02-21T01:45:25;8.30;16.70
38456;DHT22;24237;50.106;20.014;2024-02-21T01:47:50;8.30;99.90
38456;DHT22;24237;50.106;20.014;2024-02-21T01:50:17;8.10;99.90
38456;DHT22;24237;50.106;20.014;2024-02-21T01:52:46;8.00;99.90
38456;DHT22;24237;50.106;20.014;2024-02-21T01:55:13;7.90;1.00
38456;DHT22;24237;50.106;20.014;2024-02-21T01:57:42;7.80;1.00
38456;DHT22;24237;50.106;20.014;2024-02-21T02:00:12;8.00;2.90
38456;DHT22;24237;50.106;20.014;2024-02-21T02:02:39;8.00;1.00
38456;DHT22;24237;50.106;20.014;2024-02-21T02:05:07;8.00;1.00
38456;DHT22;24237;50.106;20.014;2024-02-21T02:07:33;7.80;99.90
38456;DHT22;24237;50.106;20.014;2024-02-21T02:09:58;7.70;99.90
38456;DHT22;24237;50.106;20.014;2024-02-21T02:12:24;7.70;99.90
38456;DHT22;24237;50.106;20.014;2024-02-21T02:15:00;7.60;99.90
38456;DHT22;24237;50.106;20.014;2024-02-21T02:17:26;7.60;99.90
38456;DHT22;24237;50.106;20.014;2024-02-21T02:19:51;7.70;99.90
38456;DHT22;24237;50.106;20.014;2024-02-21T02:22:22;7.60;99.90
38456;DHT22;24237;50.106;20.014;2024-02-21T02:24:48;7.70;99.90
38456;DHT22;24237;50.106;20.014;2024-02-21T02:27:14;7.70;99.90
38456;DHT22;24237;50.106;20.014;2024-02-21T02:29:39;7.90;99.90
38456;DHT22;24237;50.106;20.014;2024-02-21T02:32:05;7.80;99.90
38456;DHT22;24237;50.106;20.014;2024-02-21T02:34:31;7.70;99.90
38456;DHT22;24237;50.106;20.014;2024-02-21T02:36:57;7.70;99.90
38456;DHT22;24237;50.106;20.014;2024-02-21T02:39:22;7.80;99.90
38456;DHT22;24237;50.106;20.014;2024-02-21T02:41:48;7.90;99.90
38456;DHT22;24237;50.106;20.014;2024-02-21T02:44:13;7.90;45.10
38456;DHT22;24237;50.106;20.014;2024-02-21T02:46:42;7.70;99.90
38456;DHT22;24237;50.106;20.014;2024-02-21T02:49:08;7.60;99.90
38456;DHT22;24237;50.106;20.014;2024-02-21T02:51:33;7.80;99.90
38456;DHT22;24237;50.106;20.014;2024-02-21T02:53:59;7.80;99.90
38456;DHT22;24237;50.106;20.014;2024-02-21T02:56:25;7.80;99.90
38456;DHT22;24237;50.106;20.014;2024-02-21T02:58:50;7.90;99.90
38456;DHT22;24237;50.106;20.014;2024-02-21T03:01:16;7.90;99.90
38456;DHT22;24237;50.106;20.014;2024-02-21T03:03:41;7.70;99.90
38456;DHT22;24237;50.106;20.014;2024-02-21T03:06:07;7.80;99.90
38456;DHT22;24237;50.106;20.014;2024-02-21T03:08:33;7.80;99.90
38456;DHT22;24237;50.106;20.014;2024-02-21T03:10:59;7.80;99.90
38456;DHT22;24237;50.106;20.014;2024-02-21T03:13:25;7.80;99.90
38456;DHT22;24237;50.106;20.014;2024-02-21T03:15:51;7.60;99.90
38456;DHT22;24237;50.106;20.014;2024-02-21T03:18:17;7.50;99.90
38456;DHT22;24237;50.106;20.014;2024-02-21T03:20:42;7.50;99.90
38456;DHT22;24237;50.106;20.014;2024-02-21T03:23:08;7.60;99.90
38456;DHT22;24237;50.106;20.014;2024-02-21T03:25:34;7.80;99.90
38456;DHT22;24237;50.106;20.014;2024-02-21T03:27:59;7.70;99.90
38456;DHT22;24237;50.106;20.014;2024-02-21T03:30:25;7.90;99.90
38456;DHT22;24237;50.106;20.014;2024-02-21T03:32:51;7.90;99.90
38456;DHT22;24237;50.106;20.014;2024-02-21T03:35:16;7.70;99.90
38456;DHT22;24237;50.106;20.014;2024-02-21T03:37:44;7.80;99.90
38456;DHT22;24237;50.106;20.014;2024-02-21T03:40:10;7.90;99.90
38456;DHT22;24237;50.106;20.014;2024-02-21T03:42:35;7.90;99.90
38456;DHT22;24237;50.106;20.014;2024-02-21T03:45:01;7.80;99.90
38456;DHT22;24237;50.106;20.014;2024-02-21T03:47:27;7.70;99.90
38456;DHT22;24237;50.106;20.014;2024-02-21T03:49:52;7.70;99.90
38456;DHT22;24237;50.106;20.014;2024-02-21T03:52:18;7.80;99.90
38456;DHT22;24237;50.106;20.014;2024-02-21T03:54:44;7.70;99.90
38456;DHT22;24237;50.106;20.014;2024-02-21T03:57:10;7.60;99.90
38456;DHT22;24237;50.106;20.014;2024-02-21T03:59:35;7.70;99.90
38456;DHT22;24237;50.106;20.014;2024-02-21T04:02:01;7.70;99.90
38456;DHT22;24237;50.106;20.014;2024-02-21T04:04:29;7.50;99.90
38456;DHT22;24237;50.106;20.014;2024-02-21T04:06:55;7.50;99.90
38456;DHT22;24237;50.106;20.014;2024-02-21T04:09:20;7.50;99.90
38456;DHT22;24237;50.106;20.014;2024-02-21T04:11:46;7.20;1.00
38456;DHT22;24237;50.106;20.014;2024-02-21T04:14:11;7.20;1.00
38456;DHT22;24237;50.106;20.014;2024-02-21T04:16:37;7.00;1.00
38456;DHT22;24237;50.106;20.014;2024-02-21T04:19:03;7.00;1.00
38456;DHT22;24237;50.106;20.014;2024-02-21T04:21:29;7.10;1.00
38456;DHT22;24237;50.106;20.014;2024-02-21T04:23:54;7.40;99.90
38456;DHT22;24237;50.106;20.014;2024-02-21T04:26:20;7.40;99.90
38456;DHT22;24237;50.106;20.014;2024-02-21T04:28:46;7.60;99.90
38456;DHT22;24237;50.106;20.014;2024-02-21T04:31:12;7.70;99.90
38456;DHT22;24237;50.106;20.014;2024-02-21T04:33:38;7.60;99.90
38456;DHT22;24237;50.106;20.014;2024-02-21T04:36:04;7.60;99.90
38456;DHT22;24237;50.106;20.014;2024-02-21T04:38:30;7.70;99.90
38456;DHT22;24237;50.106;20.014;2024-02-21T04:40:56;7.70;99.90
38456;DHT22;24237;50.106;20.014;2024-02-21T04:43:24;7.70;99.90
38456;DHT22;24237;50.106;20.014;2024-02-21T04:45:50;7.50;99.90
38456;DHT22;24237;50.106;20.014;2024-02-21T04:48:16;7.60;99.90
38456;DHT22;24237;50.106;20.014;2024-02-21T04:50:42;7.90;81.20
38456;DHT22;24237;50.106;20.014;2024-02-21T04:53:07;7.90;7.30
38456;DHT22;24237;50.106;20.014;2024-02-21T04:55:33;7.70;99.90
38456;DHT22;24237;50.106;20.014;2024-02-21T04:57:59;7.70;29.60
38456;DHT22;24237;50.106;20.014;2024-02-21T05:00:25;7.60;99.90
38456;DHT22;24237;50.106;20.014;2024-02-21T05:02:51;7.60;99.90
38456;DHT22;24237;50.106;20.014;2024-02-21T05:05:17;7.80;99.90
38456;DHT22;24237;50.106;20.014;2024-02-21T05:07:43;7.90;1.00
38456;DHT22;24237;50.106;20.014;2024-02-21T05:10:08;7.80;1.00
38456;DHT22;24237;50.106;20.014;2024-02-21T05:12:35;7.60;59.30
38456;DHT22;24237;50.106;20.014;2024-02-21T05:15:01;7.70;99.90
38456;DHT22;24237;50.106;20.014;2024-02-21T05:17:26;7.70;56.80
38456;DHT22;24237;50.106;20.014;2024-02-21T05:19:52;7.80;13.60
38456;DHT22;24237;50.106;20.014;2024-02-21T05:22:17;8.30;99.90
38456;DHT22;24237;50.106;20.014;2024-02-21T05:24:43;8.20;99.90
38456;DHT22;24237;50.106;20.014;2024-02-21T05:27:09;8.40;99.90
38456;DHT22;24237;50.106;20.014;2024-02-21T05:29:34;8.50;99.90
38456;DHT22;24237;50.106;20.014;2024-02-21T05:32:00;8.20;99.90
38456;DHT22;24237;50.106;20.014;2024-02-21T05:34:26;8.30;99.90
38456;DHT22;24237;50.106;20.014;2024-02-21T05:36:52;8.20;99.90
38456;DHT22;24237;50.106;20.014;2024-02-21T05:39:18;7.90;1.00
38456;DHT22;24237;50.106;20.014;2024-02-21T05:41:44;8.00;1.00
38456;DHT22;24237;50.106;20.014;2024-02-21T05:44:10;8.20;99.90
38456;DHT22;24237;50.106;20.014;2024-02-21T05:46:36;8.00;1.00
38456;DHT22;24237;50.106;20.014;2024-02-21T05:49:02;8.00;1.00
38456;DHT22;24237;50.106;20.014;2024-02-21T05:51:27;8.00;1.00
38456;DHT22;24237;50.106;20.014;2024-02-21T05:53:53;8.10;1.00
38456;DHT22;24237;50.106;20.014;2024-02-21T05:56:18;8.10;1.00
38456;DHT22;24237;50.106;20.014;2024-02-21T05:58:44;7.90;63.20
38456;DHT22;24237;50.106;20.014;2024-02-21T06:01:11;8.00;1.00
38456;DHT22;24237;50.106;20.014;2024-02-21T06:03:37;7.70;99.90
38456;DHT22;24237;50.106;20.014;2024-02-21T06:06:03;7.70;99.90
38456;DHT22;24237;50.106;20.014;2024-02-21T06:08:30;7.90;99.90
38456;DHT22;24237;50.106;20.014;2024-02-21T06:10:55;7.80;99.90
38456;DHT22;24237;50.106;20.014;2024-02-21T06:13:21;8.00;99.90
38456;DHT22;24237;50.106;20.014;2024-02-21T06:15:47;7.80;99.90
38456;DHT22;24237;50.106;20.014;2024-02-21T06:18:13;7.40;99.90
38456;DHT22;24237;50.106;20.014;2024-02-21T06:20:39;7.70;99.90
38456;DHT22;24237;50.106;20.014;2024-02-21T06:23:06;7.70;99.90
38456;DHT22;24237;50.106;20.014;2024-02-21T06:25:32;8.00;99.90
38456;DHT22;24237;50.106;20.014;2024-02-21T06:27:57;8.00;99.90
38456;DHT22;24237;50.106;20.014;2024-02-21T06:30:23;8.10;1.00
38456;DHT22;24237;50.106;20.014;2024-02-21T06:32:49;8.10;1.00
38456;DHT22;24237;50.106;20.014;2024-02-21T06:35:14;8.20;70.30
38456;DHT22;24237;50.106;20.014;2024-02-21T06:37:40;8.30;83.90
38456;DHT22;24237;50.106;20.014;2024-02-21T06:40:06;8.40;1.00
38456;DHT22;24237;50.106;20.014;2024-02-21T06:42:32;8.50;1.00
38456;DHT22;24237;50.106;20.014;2024-02-21T06:44:58;8.60;1.00
38456;DHT22;24237;50.106;20.014;2024-02-21T06:47:24;8.40;99.90
38456;DHT22;24237;50.106;20.014;2024-02-21T06:49:50;8.50;99.90
38456;DHT22;24237;50.106;20.014;2024-02-21T06:52:18;8.50;99.90
38456;DHT22;24237;50.106;20.014;2024-02-21T06:54:46;8.60;99.90
38456;DHT22;24237;50.106;20.014;2024-02-21T06:57:12;8.60;99.90
38456;DHT22;24237;50.106;20.014;2024-02-21T06:59:39;8.80;99.90
38456;DHT22;24237;50.106;20.014;2024-02-21T07:02:05;8.60;99.90
38456;DHT22;24237;50.106;20.014;2024-02-21T07:04:30;8.60;99.90
38456;DHT22;24237;50.106;20.014;2024-02-21T07:06:56;8.70;99.90
38456;DHT22;24237;50.106;20.014;2024-02-21T07:09:22;8.90;1.00
38456;DHT22;24237;50.106;20.014;2024-02-21T07:11:47;9.00;1.00
38456;DHT22;24237;50.106;20.014;2024-02-21T07:14:14;8.90;1.00
38456;DHT22;24237;50.106;20.014;2024-02-21T07:16:41;9.00;99.90
38456;DHT22;24237;50.106;20.014;2024-02-21T07:19:06;9.00;1.00
38456;DHT22;24237;50.106;20.014;2024-02-21T07:21:32;8.90;1.00
38456;DHT22;24237;50.106;20.014;2024-02-21T07:23:58;9.00;99.90
38456;DHT22;24237;50.106;20.014;2024-02-21T07:26:24;9.10;99.90
38456;DHT22;24237;50.106;20.014;2024-02-21T07:28:49;9.00;99.90
38456;DHT22;24237;50.106;20.014;2024-02-21T07:31:15;9.10;99.90
38456;DHT22;24237;50.106;20.014;2024-02-21T07:33:41;9.40;99.90
38456;DHT22;24237;50.106;20.014;2024-02-21T07:36:07;9.40;99.90
38456;DHT22;24237;50.106;20.014;2024-02-21T07:38:34;9.40;99.90
38456;DHT22;24237;50.106;20.014;2024-02-21T07:40:59;9.40;99.90
38456;DHT22;24237;50.106;20.014;2024-02-21T07:43:25;9.30;99.90
38456;DHT22;24237;50.106;20.014;2024-02-21T07:45:52;9.30;99.90
38456;DHT22;24237;50.106;20.014;2024-02-21T07:48:18;9.40;99.90
38456;DHT22;24237;50.106;20.014;2024-02-21T07:50:44;9.40;99.90
38456;DHT22;24237;50.106;20.014;2024-02-21T07:53:10;9.50;99.90
38456;DHT22;24237;50.106;20.014;2024-02-21T07:55:35;9.60;58.00
38456;DHT22;24237;50.106;20.014;2024-02-21T07:58:01;9.60;9.50
38456;DHT22;24237;50.106;20.014;2024-02-21T08:00:27;9.40;85.00
38456;DHT22;24237;50.106;20.014;2024-02-21T08:02:52;9.80;1.00
38456;DHT22;24237;50.106;20.014;2024-02-21T08:05:19;9.80;99.90
38456;DHT22;24237;50.106;20.014;2024-02-21T08:07:45;9.80;99.90
38456;DHT22;24237;50.106;20.014;2024-02-21T08:10:11;9.90;99.90
38456;DHT22;24237;50.106;20.014;2024-02-21T08:12:36;9.80;99.90
38456;DHT22;24237;50.106;20.014;2024-02-21T08:15:03;9.80;99.90
38456;DHT22;24237;50.106;20.014;2024-02-21T08:17:29;9.90;99.90
38456;DHT22;24237;50.106;20.014;2024-02-21T08:19:54;10.00;99.90
38456;DHT22;24237;50.106;20.014;2024-02-21T08:22:20;10.20;99.90
38456;DHT22;24237;50.106;20.014;2024-02-21T08:24:46;10.30;1.00
38456;DHT22;24237;50.106;20.014;2024-02-21T08:27:11;10.20;12.90
38456;DHT22;24237;50.106;20.014;2024-02-21T08:29:37;10.30;1.00
38456;DHT22;24237;50.106;20.014;2024-02-21T08:32:03;10.40;99.90
38456;DHT22;24237;50.106;20.014;2024-02-21T08:34:28;10.30;1.00
38456;DHT22;24237;50.106;20.014;2024-02-21T08:36:56;10.40;99.90
38456;DHT22;24237;50.106;20.014;2024-02-21T08:39:21;10.50;99.90
38456;DHT22;24237;50.106;20.014;2024-02-21T08:41:47;10.50;99.90
38456;DHT22;24237;50.106;20.014;2024-02-21T08:44:12;10.40;99.90
38456;DHT22;24237;50.106;20.014;2024-02-21T08:46:38;10.10;99.90
38456;DHT22;24237;50.106;20.014;2024-02-21T08:49:06;9.90;1.00
38456;DHT22;24237;50.106;20.014;2024-02-21T08:51:31;9.80;1.00
38456;DHT22;24237;50.106;20.014;2024-02-21T08:53:58;10.00;1.00
38456;DHT22;24237;50.106;20.014;2024-02-21T08:56:25;10.00;1.00
38456;DHT22;24237;50.106;20.014;2024-02-21T08:58:50;10.10;1.00
38456;DHT22;24237;50.106;20.014;2024-02-21T09:01:16;10.20;1.00
38456;DHT22;24237;50.106;20.014;2024-02-21T09:03:42;10.50;99.90
38456;DHT22;24237;50.106;20.014;2024-02-21T09:06:10;10.50;99.90
38456;DHT22;24237;50.106;20.014;2024-02-21T09:08:35;10.40;99.90
38456;DHT22;24237;50.106;20.014;2024-02-21T09:11:01;10.40;1.00
38456;DHT22;24237;50.106;20.014;2024-02-21T09:13:27;10.60;99.90
38456;DHT22;24237;50.106;20.014;2024-02-21T09:15:53;11.00;99.90
38456;DHT22;24237;50.106;20.014;2024-02-21T09:18:18;11.30;99.90
38456;DHT22;24237;50.106;20.014;2024-02-21T09:20:45;11.40;24.50
38456;DHT22;24237;50.106;20.014;2024-02-21T09:23:11;11.10;1.00
38456;DHT22;24237;50.106;20.014;2024-02-21T09:25:37;10.80;1.00
38456;DHT22;24237;50.106;20.014;2024-02-21T09:28:03;10.60;61.10
38456;DHT22;24237;50.106;20.014;2024-02-21T09:30:29;10.70;69.70
38456;DHT22;24237;50.106;20.014;2024-02-21T09:32:55;10.60;99.90
38456;DHT22;24237;50.106;20.014;2024-02-21T09:35:24;10.80;99.90
38456;DHT22;24237;50.106;20.014;2024-02-21T09:37:52;10.90;83.20
38456;DHT22;24237;50.106;20.014;2024-02-21T09:40:17;11.10;13.00
38456;DHT22;24237;50.106;20.014;2024-02-21T09:42:44;11.40;1.00
38456;DHT22;24237;50.106;20.014;2024-02-21T09:47:50;11.40;1.00
38456;DHT22;24237;50.106;20.014;2024-02-21T09:50:19;11.50;99.90
38456;DHT22;24237;50.106;20.014;2024-02-21T09:52:48;11.40;99.90
38456;DHT22;24237;50.106;20.014;2024-02-21T09:55:15;11.40;1.00
38456;DHT22;24237;50.106;20.014;2024-02-21T09:57:42;11.60;1.00
38456;DHT22;24237;50.106;20.014;2024-02-21T10:00:09;11.80;99.90
38456;DHT22;24237;50.106;20.014;2024-02-21T10:02:35;11.80;99.90
38456;DHT22;24237;50.106;20.014;2024-02-21T10:05:02;12.00;99.90
38456;DHT22;24237;50.106;20.014;2024-02-21T10:07:30;11.90;99.90
38456;DHT22;24237;50.106;20.014;2024-02-21T10:10:02;11.70;99.90
38456;DHT22;24237;50.106;20.014;2024-02-21T10:12:28;11.70;99.90
38456;DHT22;24237;50.106;20.014;2024-02-21T10:15:05;11.70;99.90
38456;DHT22;24237;50.106;20.014;2024-02-21T10:17:32;11.30;99.90
38456;DHT22;24237;50.106;20.014;2024-02-21T10:20:11;11.40;99.90
38456;DHT22;24237;50.106;20.014;2024-02-21T10:22:38;11.30;99.90
38456;DHT22;24237;50.106;20.014;2024-02-21T10:25:09;11.40;99.90
38456;DHT22;24237;50.106;20.014;2024-02-21T10:27:35;11.40;99.90
38456;DHT22;24237;50.106;20.014;2024-02-21T10:30:01;11.50;99.90
38456;DHT22;24237;50.106;20.014;2024-02-21T10:32:27;11.40;99.90
38456;DHT22;24237;50.106;20.014;2024-02-21T10:35:02;11.50;99.90
38456;DHT22;24237;50.106;20.014;2024-02-21T10:37:29;11.80;99.90
38456;DHT22;24237;50.106;20.014;2024-02-21T10:39:55;11.80;99.90
38456;DHT22;24237;50.106;20.014;2024-02-21T10:42:22;11.90;30.80
38456;DHT22;24237;50.106;20.014;2024-02-21T10:44:52;11.90;29.10
38456;DHT22;24237;50.106;20.014;2024-02-21T10:47:19;11.80;17.70
38456;DHT22;24237;50.106;20.014;2024-02-21T10:49:54;11.60;33.80
38456;DHT22;24237;50.106;20.014;2024-02-21T10:55:20;11.50;91.70
38456;DHT22;24237;50.106;20.014;2024-02-21T10:57:50;12.00;33.30
38456;DHT22;24237;50.106;20.014;2024-02-21T11:00:17;12.20;3.60
38456;DHT22;24237;50.106;20.014;2024-02-21T11:02:44;12.80;1.00
38456;DHT22;24237;50.106;20.014;2024-02-21T11:05:10;13.10;1.00
38456;DHT22;24237;50.106;20.014;2024-02-21T11:07:37;13.00;1.00
38456;DHT22;24237;50.106;20.014;2024-02-21T11:10:04;12.50;1.00
38456;DHT22;24237;50.106;20.014;2024-02-21T11:12:33;12.40;1.00
38456;DHT22;24237;50.106;20.014;2024-02-21T11:15:08;12.40;1.00
38456;DHT22;24237;50.106;20.014;2024-02-21T11:17:34;12.60;1.00
38456;DHT22;24237;50.106;20.014;2024-02-21T11:20:11;12.40;1.00
38456;DHT22;24237;50.106;20.014;2024-02-21T11:22:42;12.20;1.00
38456;DHT22;24237;50.106;20.014;2024-02-21T11:25:08;12.00;1.00
38456;DHT22;24237;50.106;20.014;2024-02-21T11:27:37;11.90;1.00
38456;DHT22;24237;50.106;20.014;2024-02-21T11:30:05;12.00;1.00
38456;DHT22;24237;50.106;20.014;2024-02-21T11:32:31;12.00;1.00
38456;DHT22;24237;50.106;20.014;2024-02-21T11:34:57;11.90;1.00
38456;DHT22;24237;50.106;20.014;2024-02-21T11:37:28;12.20;1.00
38456;DHT22;24237;50.106;20.014;2024-02-21T11:39:57;12.20;1.00
38456;DHT22;24237;50.106;20.014;2024-02-21T11:42:25;12.30;1.00
38456;DHT22;24237;50.106;20.014;2024-02-21T11:44:51;12.50;1.00
38456;DHT22;24237;50.106;20.014;2024-02-21T11:47:18;12.60;1.00
38456;DHT22;24237;50.106;20.014;2024-02-21T11:49:47;12.70;1.00
38456;DHT22;24237;50.106;20.014;2024-02-21T11:52:15;12.90;1.00
38456;DHT22;24237;50.106;20.014;2024-02-21T11:54:42;12.90;99.90
38456;DHT22;24237;50.106;20.014;2024-02-21T11:57:12;13.00;99.90
38456;DHT22;24237;50.106;20.014;2024-02-21T12:00:17;12.50;1.00
38456;DHT22;24237;50.106;20.014;2024-02-21T12:02:45;12.20;1.00
38456;DHT22;24237;50.106;20.014;2024-02-21T12:05:11;12.00;1.00
38456;DHT22;24237;50.106;20.014;2024-02-21T12:07:37;12.10;1.00
38456;DHT22;24237;50.106;20.014;2024-02-21T12:10:15;12.00;1.00
38456;DHT22;24237;50.106;20.014;2024-02-21T12:12:40;12.30;1.00
38456;DHT22;24237;50.106;20.014;2024-02-21T12:15:07;12.40;1.00
38456;DHT22;24237;50.106;20.014;2024-02-21T12:17:37;12.40;1.00
38456;DHT22;24237;50.106;20.014;2024-02-21T12:20:03;12.30;1.00
38456;DHT22;24237;50.106;20.014;2024-02-21T12:22:31;12.50;1.00
38456;DHT22;24237;50.106;20.014;2024-02-21T12:24:58;12.70;1.00
38456;DHT22;24237;50.106;20.014;2024-02-21T12:27:24;13.10;99.90
38456;DHT22;24237;50.106;20.014;2024-02-21T12:29:50;13.30;99.90
38456;DHT22;24237;50.106;20.014;2024-02-21T12:32:16;13.00;99.90
38456;DHT22;24237;50.106;20.014;2024-02-21T12:34:42;13.20;99.90
38456;DHT22;24237;50.106;20.014;2024-02-21T12:37:07;13.20;99.90
38456;DHT22;24237;50.106;20.014;2024-02-21T12:39:33;13.10;99.90
38456;DHT22;24237;50.106;20.014;2024-02-21T12:41:59;13.20;99.90
38456;DHT22;24237;50.106;20.014;2024-02-21T12:44:25;12.90;99.90
38456;DHT22;24237;50.106;20.014;2024-02-21T12:46:50;12.70;99.90
38456;DHT22;24237;50.106;20.014;2024-02-21T12:49:19;12.50;99.90
38456;DHT22;24237;50.106;20.014;2024-02-21T12:51:44;12.50;99.90
38456;DHT22;24237;50.106;20.014;2024-02-21T12:54:12;12.60;99.90
38456;DHT22;24237;50.106;20.014;2024-02-21T12:57:03;12.50;99.90
38456;DHT22;24237;50.106;20.014;2024-02-21T12:59:29;12.50;99.90
38456;DHT22;24237;50.106;20.014;2024-02-21T13:01:55;12.40;99.90
38456;DHT22;24237;50.106;20.014;2024-02-21T13:04:21;12.40;99.90
38456;DHT22;24237;50.106;20.014;2024-02-21T13:06:48;12.30;99.90
38456;DHT22;24237;50.106;20.014;2024-02-21T13:09:14;12.20;99.90
38456;DHT22;24237;50.106;20.014;2024-02-21T13:11:40;12.10;99.90
38456;DHT22;24237;50.106;20.014;2024-02-21T13:14:06;12.10;99.90
38456;DHT22;24237;50.106;20.014;2024-02-21T13:16:32;12.00;99.90
38456;DHT22;24237;50.106;20.014;2024-02-21T13:18:59;12.00;99.90
38456;DHT22;24237;50.106;20.014;2024-02-21T13:21:25;12.10;99.90
38456;DHT22;24237;50.106;20.014;2024-02-21T13:23:51;12.10;99.90
38456;DHT22;24237;50.106;20.014;2024-02-21T13:26:16;12.10;99.90
38456;DHT22;24237;50.106;20.014;2024-02-21T13:28:42;11.90;99.90
38456;DHT22;24237;50.106;20.014;2024-02-21T13:31:10;11.90;99.90
38456;DHT22;24237;50.106;20.014;2024-02-21T13:33:35;11.90;99.90
38456;DHT22;24237;50.106;20.014;2024-02-21T13:36:02;12.00;99.90
38456;DHT22;24237;50.106;20.014;2024-02-21T13:38:29;11.90;99.90
38456;DHT22;24237;50.106;20.014;2024-02-21T13:40:54;12.10;99.90
38456;DHT22;24237;50.106;20.014;2024-02-21T13:43:20;11.70;99.90
38456;DHT22;24237;50.106;20.014;2024-02-21T13:45:56;12.00;99.90
38456;DHT22;24237;50.106;20.014;2024-02-21T13:48:24;11.40;1.00
38456;DHT22;24237;50.106;20.014;2024-02-21T13:50:50;11.20;1.00
38456;DHT22;24237;50.106;20.014;2024-02-21T13:53:15;11.40;1.00
38456;DHT22;24237;50.106;20.014;2024-02-21T13:55:46;11.50;1.40
38456;DHT22;24237;50.106;20.014;2024-02-21T13:58:12;11.40;7.90
38456;DHT22;24237;50.106;20.014;2024-02-21T14:00:38;11.30;26.70
38456;DHT22;24237;50.106;20.014;2024-02-21T14:03:04;11.50;1.00
38456;DHT22;24237;50.106;20.014;2024-02-21T14:05:29;11.40;1.00
38456;DHT22;24237;50.106;20.014;2024-02-21T14:07:55;11.30;1.00
38456;DHT22;24237;50.106;20.014;2024-02-21T14:10:22;11.20;4.50
38456;DHT22;24237;50.106;20.014;2024-02-21T14:12:48;11.20;1.00
38456;DHT22;24237;50.106;20.014;2024-02-21T14:15:14;10.90;44.60
38456;DHT22;24237;50.106;20.014;2024-02-21T14:17:39;10.90;99.90
38456;DHT22;24237;50.106;20.014;2024-02-21T14:20:07;11.00;99.90
38456;DHT22;24237;50.106;20.014;2024-02-21T14:22:33;11.10;99.90
38456;DHT22;24237;50.106;20.014;2024-02-21T14:24:59;11.20;99.90
38456;DHT22;24237;50.106;20.014;2024-02-21T14:27:25;11.10;99.90
38456;DHT22;24237;50.106;20.014;2024-02-21T14:29:51;10.90;99.90
38456;DHT22;24237;50.106;20.014;2024-02-21T14:32:17;10.90;99.90
38456;DHT22;24237;50.106;20.014;2024-02-21T14:34:42;10.90;99.90
38456;DHT22;24237;50.106;20.014;2024-02-21T14:37:08;11.00;99.90
38456;DHT22;24237;50.106;20.014;2024-02-21T14:39:33;11.00;99.90
38456;DHT22;24237;50.106;20.014;2024-02-21T14:42:00;10.80;1.00
38456;DHT22;24237;50.106;20.014;2024-02-21T14:44:26;10.60;99.90
38456;DHT22;24237;50.106;20.014;2024-02-21T14:46:53;10.60;1.00
38456;DHT22;24237;50.106;20.014;2024-02-21T14:49:18;10.70;1.00
38456;DHT22;24237;50.106;20.014;2024-02-21T14:51:44;10.60;99.90
38456;DHT22;24237;50.106;20.014;2024-02-21T14:54:10;10.60;99.90
38456;DHT22;24237;50.106;20.014;2024-02-21T14:56:36;10.60;99.90
38456;DHT22;24237;50.106;20.014;2024-02-21T14:59:11;10.80;99.90
38456;DHT22;24237;50.106;20.014;2024-02-21T15:01:37;10.70;99.90
38456;DHT22;24237;50.106;20.014;2024-02-21T15:04:05;10.50;1.00
38456;DHT22;24237;50.106;20.014;2024-02-21T15:06:31;10.60;99.90
38456;DHT22;24237;50.106;20.014;2024-02-21T15:09:02;10.80;1.00
38456;DHT22;24237;50.106;20.014;2024-02-21T15:11:29;10.80;99.90
38456;DHT22;24237;50.106;20.014;2024-02-21T15:13:54;10.40;99.90
38456;DHT22;24237;50.106;20.014;2024-02-21T15:16:20;10.50;1.00
38456;DHT22;24237;50.106;20.014;2024-02-21T15:18:46;10.40;1.00
38456;DHT22;24237;50.106;20.014;2024-02-21T15:21:11;10.50;99.90
38456;DHT22;24237;50.106;20.014;2024-02-21T15:23:39;10.50;99.90
38456;DHT22;24237;50.106;20.014;2024-02-21T15:26:05;10.60;99.90
38456;DHT22;24237;50.106;20.014;2024-02-21T15:28:31;10.50;99.90
38456;DHT22;24237;50.106;20.014;2024-02-21T15:30:57;10.60;99.90